Time;durP1;ratioP1;P1;durP2;ratioP2;P2;SDS_P1;SDS_P2;PMS_P1;PMS_P2;Temp;Humidity;BMP_temperature;BMP_pressure;BME280_temperature;BME280_humidity;BME280_pressure;Samples;Min_cycle;Max_cycle;Signal;HPM_P1;HPM_P2
2023/09/24 00:00:20;;;;;;;1.30;1.25;;;10.10;99.90;;;;;;6285882;22;20193;-85
2023/09/24 00:02:49;;;;;;;0.65;0.65;;;10.10;99.90;;;;;;6259461;22;20554;-85
2023/09/24 00:05:17;;;;;;;0.55;0.55;;;10.10;99.90;;;;;;6290088;22;20183;-84
2023/09/24 00:07:46;;;;;;;1.08;1.08;;;10.10;99.90;;;;;;6263187;22;20221;-85
2023/09/24 00:10:14;;;;;;;1.13;1.13;;;10.20;99.90;;;;;;6261107;22;20175;-86
2023/09/24 00:12:42;;;;;;;0.40;0.40;;;9.90;99.90;;;;;;6259787;22;20234;-85
2023/09/24 00:15:12;;;;;;;0.68;0.68;;;10.00;99.90;;;;;;6266279;22;20206;-84
2023/09/24 00:17:39;;;;;;;0.60;0.60;;;9.90;99.90;;;;;;6259752;22;20205;-86
2023/09/24 00:20:07;;;;;;;0.40;0.40;;;10.10;99.90;;;;;;6286672;22;20286;-85
2023/09/24 00:22:35;;;;;;;0.50;0.50;;;9.90;99.90;;;;;;6261706;22;20550;-85
2023/09/24 00:25:04;;;;;;;0.40;0.40;;;10.10;99.90;;;;;;6289190;22;20186;-82
2023/09/24 00:27:31;;;;;;;0.63;0.63;;;10.00;99.90;;;;;;6262051;22;20175;-85
2023/09/24 00:29:59;;;;;;;1.08;1.08;;;10.00;99.90;;;;;;6260765;22;20178;-85
2023/09/24 00:32:26;;;;;;;0.60;0.60;;;9.90;99.90;;;;;;6285816;22;20425;-85
2023/09/24 00:34:55;;;;;;;0.90;0.90;;;10.00;99.90;;;;;;6260296;22;20182;-85
2023/09/24 00:37:22;;;;;;;0.75;0.75;;;9.90;99.90;;;;;;6287441;22;20186;-84
2023/09/24 00:39:49;;;;;;;0.50;0.50;;;10.10;99.90;;;;;;6260776;22;20419;-84
2023/09/24 00:42:19;;;;;;;0.70;0.70;;;10.00;99.90;;;;;;6260002;22;20189;-87
2023/09/24 00:44:46;;;;;;;0.98;0.98;;;9.90;99.90;;;;;;6258907;22;20276;-86
2023/09/24 00:47:14;;;;;;;1.17;1.13;;;9.90;99.90;;;;;;6258173;22;20191;-85
2023/09/24 00:49:44;;;;;;;0.50;0.50;;;9.80;99.90;;;;;;6285195;22;20193;-84
2023/09/24 00:52:14;;;;;;;1.05;1.05;;;9.70;99.90;;;;;;6258242;22;20260;-86
2023/09/24 00:54:41;;;;;;;0.40;0.40;;;9.80;99.90;;;;;;6258508;22;20242;-83
2023/09/24 00:57:10;;;;;;;0.60;0.60;;;9.80;99.90;;;;;;6259656;22;20236;-84
2023/09/24 00:59:40;;;;;;;1.27;1.17;;;9.80;99.90;;;;;;6261002;22;20181;-84
2023/09/24 01:02:09;;;;;;;1.35;1.35;;;9.70;99.90;;;;;;6261089;22;20167;-84
2023/09/24 01:04:38;;;;;;;2.05;1.95;;;9.80;99.90;;;;;;6259927;22;20174;-84
2023/09/24 01:07:08;;;;;;;0.60;0.60;;;9.80;99.90;;;;;;6260197;22;20181;-84
2023/09/24 01:09:35;;;;;;;0.60;0.60;;;9.70;99.90;;;;;;6258425;22;20238;-86
2023/09/24 01:12:04;;;;;;;0.60;0.60;;;9.80;99.90;;;;;;6258290;22;20273;-86
2023/09/24 01:14:32;;;;;;;1.08;1.08;;;9.80;99.90;;;;;;6257972;22;20324;-86
2023/09/24 01:17:00;;;;;;;0.70;0.70;;;9.90;99.90;;;;;;6258384;22;20250;-87
2023/09/24 01:19:29;;;;;;;1.05;0.95;;;9.70;99.90;;;;;;6259057;22;20178;-85
2023/09/24 01:22:01;;;;;;;0.60;0.55;;;9.70;99.90;;;;;;6286867;22;20167;-85
2023/09/24 01:24:30;;;;;;;0.40;0.40;;;9.90;99.90;;;;;;6297354;22;20151;-86
2023/09/24 01:26:57;;;;;;;0.50;0.50;;;9.70;99.90;;;;;;6277530;22;20163;-87
2023/09/24 01:29:26;;;;;;;3.70;1.05;;;9.70;99.90;;;;;;6303867;22;20167;-87
2023/09/24 01:31:55;;;;;;;0.98;0.93;;;9.70;99.90;;;;;;6276118;22;20220;-86
2023/09/24 01:34:23;;;;;;;1.58;0.77;;;9.80;99.90;;;;;;6287158;22;20183;-85
2023/09/24 01:36:50;;;;;;;0.40;0.40;;;9.70;99.90;;;;;;6285192;22;20171;-87
2023/09/24 01:39:19;;;;;;;1.10;1.10;;;9.60;99.90;;;;;;6284422;22;20490;-85
2023/09/24 01:41:46;;;;;;;0.88;0.88;;;9.70;99.90;;;;;;6285584;22;20195;-87
2023/09/24 01:44:13;;;;;;;0.88;0.88;;;9.70;99.90;;;;;;6260003;22;20226;-85
2023/09/24 01:46:41;;;;;;;0.50;0.50;;;9.70;99.90;;;;;;6260568;22;20203;-85
2023/09/24 01:49:10;;;;;;;1.08;0.70;;;9.70;99.90;;;;;;6259097;22;20211;-85
2023/09/24 01:51:38;;;;;;;0.40;0.40;;;9.60;99.90;;;;;;6284590;22;20206;-85
2023/09/24 01:54:06;;;;;;;0.82;0.82;;;9.60;99.90;;;;;;6258076;22;20179;-84
2023/09/24 01:56:35;;;;;;;0.63;0.63;;;9.60;99.90;;;;;;6259192;22;20209;-88
2023/09/24 01:59:06;;;;;;;0.40;0.40;;;9.60;99.90;;;;;;6284253;22;20183;-88
2023/09/24 02:01:33;;;;;;;1.63;1.45;;;9.60;99.90;;;;;;6257781;22;20183;-86
2023/09/24 02:04:03;;;;;;;1.50;1.40;;;9.70;99.90;;;;;;6257372;22;20178;-86
2023/09/24 02:06:34;;;;;;;0.40;0.40;;;9.50;99.90;;;;;;6284059;22;20318;-85
2023/09/24 02:09:08;;;;;;;0.40;0.40;;;9.50;99.90;;;;;;6283973;22;20178;-88
2023/09/24 02:11:35;;;;;;;0.40;0.40;;;9.50;99.90;;;;;;6284069;22;20234;-86
2023/09/24 02:14:05;;;;;;;1.40;1.30;;;9.40;99.90;;;;;;6258786;22;20194;-86
2023/09/24 02:16:33;;;;;;;1.17;1.15;;;9.40;99.90;;;;;;6285981;22;20205;-87
2023/09/24 02:19:01;;;;;;;0.75;0.75;;;9.40;99.90;;;;;;6285615;22;20396;-85
2023/09/24 02:21:31;;;;;;;0.98;0.98;;;9.50;99.90;;;;;;6284825;22;20198;-87
2023/09/24 02:24:01;;;;;;;0.40;0.40;;;9.50;99.90;;;;;;6259260;22;20471;-87
2023/09/24 02:26:32;;;;;;;0.50;0.50;;;9.40;99.90;;;;;;6257753;22;20183;-91
2023/09/24 02:28:59;;;;;;;0.40;0.40;;;9.40;99.90;;;;;;6257033;22;20174;-84
2023/09/24 02:31:27;;;;;;;0.63;0.63;;;9.30;99.90;;;;;;6257902;22;20214;-86
2023/09/24 02:33:54;;;;;;;0.50;0.50;;;9.30;99.90;;;;;;6258297;22;20414;-86
2023/09/24 02:36:24;;;;;;;3.08;2.75;;;9.40;99.90;;;;;;6259026;22;20175;-85
2023/09/24 02:38:52;;;;;;;1.15;1.08;;;9.30;99.90;;;;;;6259171;22;20410;-86
2023/09/24 02:41:19;;;;;;;0.60;0.60;;;9.30;99.90;;;;;;6258251;22;20736;-85
2023/09/24 02:43:48;;;;;;;0.60;0.60;;;9.50;99.90;;;;;;6258317;22;20189;-86
2023/09/24 02:46:15;;;;;;;0.60;0.60;;;9.40;99.90;;;;;;6256411;22;20409;-87
2023/09/24 02:48:44;;;;;;;0.40;0.40;;;9.30;99.90;;;;;;6256994;22;20427;-86
2023/09/24 02:51:13;;;;;;;1.20;0.85;;;9.30;99.90;;;;;;6257731;22;20190;-85
2023/09/24 02:53:42;;;;;;;0.73;0.73;;;9.30;99.90;;;;;;6259339;22;20209;-85
2023/09/24 02:56:09;;;;;;;0.82;0.82;;;9.40;99.90;;;;;;6283883;22;20189;-87
2023/09/24 02:58:36;;;;;;;0.40;0.40;;;9.30;99.90;;;;;;6257842;22;20478;-85
2023/09/24 03:01:12;;;;;;;1.58;1.52;;;9.30;99.90;;;;;;6257752;22;20216;-85
2023/09/24 03:03:39;;;;;;;0.90;0.90;;;9.40;99.90;;;;;;6257648;22;20162;-85
2023/09/24 03:06:09;;;;;;;0.40;0.40;;;9.30;99.90;;;;;;6259483;22;20174;-85
2023/09/24 03:08:39;;;;;;;0.40;0.40;;;9.50;99.90;;;;;;6260536;22;20387;-84
2023/09/24 03:11:15;;;;;;;0.50;0.50;;;9.40;99.90;;;;;;6261019;22;20175;-86
2023/09/24 03:13:43;;;;;;;0.40;0.40;;;9.40;99.90;;;;;;6258341;22;20159;-86
2023/09/24 03:16:10;;;;;;;0.60;0.60;;;9.40;99.90;;;;;;6255278;22;20186;-87
2023/09/24 03:18:38;;;;;;;0.70;0.70;;;9.40;99.90;;;;;;6256368;22;20506;-87
2023/09/24 03:21:05;;;;;;;1.05;1.05;;;9.50;99.90;;;;;;6255372;22;20175;-85
2023/09/24 03:23:34;;;;;;;0.70;0.70;;;9.50;99.90;;;;;;6280327;22;20167;-86
2023/09/24 03:26:03;;;;;;;0.47;0.47;;;9.80;99.90;;;;;;6254661;22;20187;-86
2023/09/24 03:28:30;;;;;;;2.42;2.33;;;9.60;99.90;;;;;;6281563;22;20270;-87
2023/09/24 03:30:59;;;;;;;0.40;0.40;;;9.60;99.90;;;;;;6253662;22;20183;-87
2023/09/24 03:33:32;;;;;;;0.40;0.40;;;9.60;99.90;;;;;;6281227;22;20175;-87
2023/09/24 03:36:02;;;;;;;0.50;0.50;;;9.70;99.90;;;;;;6255337;22;20185;-87
2023/09/24 03:38:35;;;;;;;0.60;0.60;;;9.70;99.90;;;;;;6284047;22;20228;-87
2023/09/24 03:41:04;;;;;;;0.60;0.60;;;9.70;99.90;;;;;;6259471;22;20190;-88
2023/09/24 03:43:31;;;;;;;1.13;1.13;;;9.80;99.90;;;;;;6286033;22;20226;-86
2023/09/24 03:45:59;;;;;;;1.85;1.40;;;9.80;99.90;;;;;;6260652;22;20175;-86
2023/09/24 03:48:28;;;;;;;0.90;0.90;;;9.70;99.90;;;;;;6286262;22;20490;-84
2023/09/24 03:50:56;;;;;;;0.80;0.80;;;9.80;99.90;;;;;;6259036;22;20288;-86
2023/09/24 03:53:23;;;;;;;0.65;0.65;;;9.80;99.90;;;;;;6258878;22;20198;-85
2023/09/24 03:55:53;;;;;;;0.85;0.85;;;9.70;99.90;;;;;;6284897;22;20171;-85
2023/09/24 03:58:22;;;;;;;0.80;0.80;;;9.60;99.90;;;;;;6284976;22;20179;-85
2023/09/24 04:00:49;;;;;;;0.50;0.50;;;9.60;99.90;;;;;;6265395;22;20201;-89
2023/09/24 04:03:18;;;;;;;1.05;1.05;;;9.50;99.90;;;;;;6266767;22;20237;-85
2023/09/24 04:05:48;;;;;;;2.00;1.90;;;9.60;99.90;;;;;;6292072;22;20183;-87
2023/09/24 04:08:16;;;;;;;1.88;1.77;;;9.50;99.90;;;;;;6269892;22;20181;-87
2023/09/24 04:10:43;;;;;;;0.50;0.50;;;9.40;99.90;;;;;;6294565;22;20198;-87
2023/09/24 04:13:12;;;;;;;0.50;0.50;;;9.70;99.90;;;;;;6295873;22;20206;-85
2023/09/24 04:15:41;;;;;;;0.40;0.40;;;9.50;99.90;;;;;;6266857;22;20179;-86
2023/09/24 04:18:11;;;;;;;0.70;0.70;;;9.60;99.90;;;;;;6269993;22;20177;-86
2023/09/24 04:20:38;;;;;;;2.05;1.80;;;9.40;99.90;;;;;;6271187;22;20186;-90
2023/09/24 04:23:07;;;;;;;0.70;0.70;;;9.10;99.90;;;;;;6269543;22;20178;-90
2023/09/24 04:25:37;;;;;;;0.60;0.60;;;9.50;99.90;;;;;;6263831;22;20483;-86
2023/09/24 04:28:05;;;;;;;1.73;1.63;;;9.40;99.90;;;;;;6270780;22;20167;-91
2023/09/24 04:30:32;;;;;;;0.95;0.60;;;9.50;99.90;;;;;;6299639;22;20217;-90
2023/09/24 04:33:03;;;;;;;0.50;0.50;;;9.60;99.90;;;;;;6268488;22;20205;-85
2023/09/24 04:35:31;;;;;;;0.60;0.60;;;9.50;99.90;;;;;;6269247;22;20228;-87
2023/09/24 04:38:02;;;;;;;0.40;0.40;;;9.40;99.90;;;;;;6258326;22;20175;-85
2023/09/24 04:40:31;;;;;;;0.60;0.60;;;9.30;99.90;;;;;;6257054;22;20197;-86
2023/09/24 04:43:00;;;;;;;5.28;1.35;;;9.30;99.90;;;;;;6257620;22;20194;-86
2023/09/24 04:45:28;;;;;;;0.70;0.70;;;9.30;99.90;;;;;;6256867;22;20206;-86
2023/09/24 04:47:55;;;;;;;0.70;0.70;;;9.30;99.90;;;;;;6283069;22;20189;-87
2023/09/24 04:50:25;;;;;;;2.15;1.77;;;9.40;99.90;;;;;;6283164;22;20191;-85
2023/09/24 04:52:54;;;;;;;0.95;0.90;;;9.40;99.90;;;;;;6283574;22;20471;-85
2023/09/24 04:55:24;;;;;;;0.98;0.98;;;9.40;99.90;;;;;;6257551;22;20245;-86
2023/09/24 04:57:53;;;;;;;0.40;0.40;;;9.30;99.90;;;;;;6257854;22;20223;-86
2023/09/24 05:00:20;;;;;;;0.90;0.90;;;9.40;99.90;;;;;;6256917;22;20175;-86
2023/09/24 05:02:51;;;;;;;0.90;0.90;;;9.00;99.90;;;;;;6283894;22;20316;-86
2023/09/24 05:05:19;;;;;;;0.40;0.30;;;9.40;99.90;;;;;;6257163;22;20167;-88
2023/09/24 05:07:53;;;;;;;0.55;0.55;;;9.50;99.90;;;;;;6256570;22;20253;-87
2023/09/24 05:10:20;;;;;;;0.80;0.80;;;9.40;99.90;;;;;;6256302;22;20383;-85
2023/09/24 05:12:48;;;;;;;0.50;0.50;;;9.60;99.90;;;;;;6255795;22;20198;-87
2023/09/24 05:15:20;;;;;;;1.30;1.20;;;9.70;99.90;;;;;;6257799;22;20427;-87
2023/09/24 05:17:48;;;;;;;0.40;0.40;;;9.70;99.90;;;;;;6257264;22;20179;-88
2023/09/24 05:20:17;;;;;;;0.50;0.50;;;9.80;99.90;;;;;;6262062;22;20190;-84
2023/09/24 05:22:45;;;;;;;0.55;0.55;;;9.70;99.90;;;;;;6295523;22;20171;-86
2023/09/24 05:25:12;;;;;;;1.80;1.70;;;9.80;99.90;;;;;;6264837;22;20190;-89
2023/09/24 05:27:40;;;;;;;1.30;0.98;;;9.70;99.90;;;;;;6257663;22;20189;-89
2023/09/24 05:30:08;;;;;;;0.80;0.80;;;10.00;99.90;;;;;;6257490;22;20195;-86
2023/09/24 05:32:38;;;;;;;0.80;0.80;;;10.10;99.90;;;;;;6257331;22;20191;-88
2023/09/24 05:35:06;;;;;;;0.80;0.80;;;10.20;99.90;;;;;;6257678;22;20336;-84
2023/09/24 05:37:33;;;;;;;0.85;0.85;;;10.30;99.90;;;;;;6284569;22;20175;-87
2023/09/24 05:40:00;;;;;;;1.60;1.50;;;10.40;99.90;;;;;;6285647;22;20281;-87
2023/09/24 05:42:27;;;;;;;1.45;1.30;;;10.50;99.90;;;;;;6259785;22;20407;-87
2023/09/24 05:44:55;;;;;;;0.77;0.77;;;10.60;99.90;;;;;;6258211;22;20175;-86
2023/09/24 05:47:22;;;;;;;1.35;1.35;;;10.70;99.90;;;;;;6256632;22;20197;-88
2023/09/24 05:49:51;;;;;;;1.83;1.73;;;11.00;99.90;;;;;;6256447;22;20500;-89
2023/09/24 05:52:18;;;;;;;0.60;0.60;;;11.00;99.90;;;;;;6255671;22;20202;-88
2023/09/24 05:54:45;;;;;;;0.77;0.70;;;11.30;99.90;;;;;;6283051;22;20178;-88
2023/09/24 05:57:12;;;;;;;0.70;0.70;;;11.50;99.90;;;;;;6261268;22;20174;-90
2023/09/24 05:59:40;;;;;;;1.02;1.02;;;11.60;99.90;;;;;;6294352;22;20170;-88
2023/09/24 06:02:07;;;;;;;1.33;1.23;;;11.80;99.90;;;;;;6276139;22;20182;-92
2023/09/24 06:04:34;;;;;;;0.60;0.60;;;11.90;99.90;;;;;;6275508;22;20201;-90
2023/09/24 06:07:02;;;;;;;0.55;0.55;;;12.00;99.90;;;;;;6299206;22;20187;-88
2023/09/24 06:09:30;;;;;;;0.50;0.50;;;12.10;99.90;;;;;;6272101;22;20178;-85
2023/09/24 06:11:57;;;;;;;0.52;0.52;;;12.10;99.90;;;;;;6286977;22;20187;-88
2023/09/24 06:14:25;;;;;;;0.45;0.45;;;12.00;99.90;;;;;;6284679;22;20261;-87
2023/09/24 06:16:52;;;;;;;0.40;0.40;;;12.10;99.90;;;;;;6257992;22;20182;-87
2023/09/24 06:19:19;;;;;;;0.60;0.60;;;12.00;99.90;;;;;;6286936;22;20237;-88
2023/09/24 06:21:50;;;;;;;0.50;0.50;;;12.10;99.90;;;;;;6258906;22;20186;-85
2023/09/24 06:24:17;;;;;;;0.57;0.57;;;12.40;99.90;;;;;;6285155;22;20340;-85
2023/09/24 06:26:46;;;;;;;0.50;0.50;;;12.40;99.90;;;;;;6286550;22;20193;-89
2023/09/24 06:29:15;;;;;;;0.63;0.63;;;12.70;99.90;;;;;;6262566;22;20188;-81
2023/09/24 06:31:42;;;;;;;0.50;0.50;;;12.70;99.90;;;;;;6266585;22;20336;-84
2023/09/24 06:34:09;;;;;;;0.60;0.60;;;12.90;99.90;;;;;;6293433;22;20181;-89
2023/09/24 06:36:39;;;;;;;1.02;1.02;;;13.10;99.90;;;;;;6298427;22;20183;-82
2023/09/24 06:39:09;;;;;;;0.50;0.50;;;13.30;99.90;;;;;;6260842;22;20178;-89
2023/09/24 06:41:36;;;;;;;2.00;1.73;;;13.50;99.90;;;;;;6284862;22;20491;-87
2023/09/24 06:44:03;;;;;;;0.50;0.50;;;13.70;99.90;;;;;;6284057;22;20183;-88
2023/09/24 06:46:31;;;;;;;0.63;0.63;;;13.60;99.90;;;;;;6285666;22;20396;-86
2023/09/24 06:48:58;;;;;;;0.70;0.70;;;13.50;99.90;;;;;;6258323;22;20479;-86
2023/09/24 06:51:26;;;;;;;1.00;1.00;;;13.80;99.90;;;;;;6283916;22;20245;-84
2023/09/24 06:53:54;;;;;;;0.60;0.60;;;14.30;99.90;;;;;;6283538;22;20458;-86
2023/09/24 06:56:21;;;;;;;0.80;0.80;;;15.00;99.90;;;;;;6284062;22;20388;-87
2023/09/24 06:58:48;;;;;;;0.80;0.80;;;15.50;99.90;;;;;;6257385;22;20461;-89
2023/09/24 07:01:15;;;;;;;0.50;0.50;;;15.40;99.90;;;;;;6282442;22;20762;-83
2023/09/24 07:03:43;;;;;;;0.60;0.60;;;15.10;99.90;;;;;;6255644;22;20466;-86
2023/09/24 07:06:10;;;;;;;0.60;0.60;;;14.80;99.90;;;;;;6256561;22;20715;-86
2023/09/24 07:08:38;;;;;;;0.70;0.70;;;14.40;99.90;;;;;;6254386;22;20398;-87
2023/09/24 07:11:21;;;;;;;0.60;0.60;;;14.50;99.90;;;;;;6283565;22;20400;-84
2023/09/24 07:13:48;;;;;;;0.90;0.90;;;14.50;99.90;;;;;;6254166;22;20801;-86
2023/09/24 07:16:17;;;;;;;0.67;0.67;;;14.40;99.90;;;;;;6284196;22;20456;-88
2023/09/24 07:18:44;;;;;;;0.50;0.50;;;14.60;99.90;;;;;;6282539;22;20403;-83
2023/09/24 07:21:11;;;;;;;0.60;0.60;;;14.80;99.90;;;;;;6285165;22;20400;-87
2023/09/24 07:23:58;;;;;;;1.00;1.00;;;15.00;99.90;;;;;;6284909;22;20384;-86
2023/09/24 07:26:26;;;;;;;0.80;0.80;;;15.50;99.90;;;;;;6286383;22;20426;-87
2023/09/24 07:28:56;;;;;;;0.90;0.90;;;16.20;99.90;;;;;;6281135;22;20762;-88
2023/09/24 07:31:26;;;;;;;0.60;0.60;;;16.60;99.90;;;;;;6282488;22;20380;-90
2023/09/24 07:33:59;;;;;;;2.23;2.13;;;17.20;99.90;;;;;;6258259;22;20440;-88
2023/09/24 07:36:33;;;;;;;1.40;1.30;;;17.70;99.90;;;;;;6285284;22;20921;-87
2023/09/24 07:39:14;;;;;;;0.87;0.87;;;18.30;99.90;;;;;;6260441;22;20350;-85
2023/09/24 07:41:43;;;;;;;0.80;0.80;;;17.60;99.90;;;;;;6284958;22;20381;-85
2023/09/24 07:44:10;;;;;;;0.60;0.60;;;17.80;99.90;;;;;;6284121;22;20575;-83
2023/09/24 07:46:37;;;;;;;0.60;0.60;;;17.90;99.90;;;;;;6255484;22;20404;-86
2023/09/24 07:49:05;;;;;;;1.90;1.80;;;18.70;99.90;;;;;;6283741;22;20457;-88
2023/09/24 07:51:33;;;;;;;0.60;0.60;;;19.20;99.90;;;;;;6286062;22;20417;-85
2023/09/24 07:54:00;;;;;;;1.10;1.10;;;19.90;99.90;;;;;;6284754;22;20402;-82
2023/09/24 07:56:27;;;;;;;0.97;0.97;;;20.30;99.90;;;;;;6260279;22;20363;-85
2023/09/24 07:58:56;;;;;;;0.90;0.90;;;20.30;99.90;;;;;;6259821;22;20398;-85
2023/09/24 08:01:23;;;;;;;1.60;1.50;;;20.40;99.90;;;;;;6258307;22;20564;-87
2023/09/24 08:03:51;;;;;;;0.80;0.80;;;20.40;99.90;;;;;;6286837;22;20619;-86
2023/09/24 08:06:19;;;;;;;1.00;1.00;;;20.70;99.90;;;;;;6284674;22;20414;-88
2023/09/24 08:08:49;;;;;;;1.57;1.47;;;21.10;99.90;;;;;;6265905;22;20386;-80
2023/09/24 08:11:26;;;;;;;0.80;0.80;;;21.20;99.90;;;;;;6266585;22;20363;-87
2023/09/24 08:13:53;;;;;;;0.77;0.77;;;21.40;99.90;;;;;;6259595;22;20398;-90
2023/09/24 08:16:23;;;;;;;1.43;1.20;;;22.20;99.90;;;;;;6256512;22;20428;-84
2023/09/24 08:18:53;;;;;;;0.80;0.80;;;22.80;99.90;;;;;;6283455;22;20370;-85
2023/09/24 08:21:30;;;;;;;1.00;1.00;;;23.00;99.90;;;;;;6284660;22;20778;-88
2023/09/24 08:23:57;;;;;;;0.80;0.80;;;23.80;99.90;;;;;;6284555;22;20718;-84
2023/09/24 08:26:24;;;;;;;0.83;0.83;;;23.80;99.10;;;;;;6285450;22;20400;-85
2023/09/24 08:28:51;;;;;;;0.80;0.80;;;24.20;98.20;;;;;;6257632;22;20394;-82
2023/09/24 08:31:29;;;;;;;9.03;2.30;;;24.40;97.90;;;;;;6280781;22;20376;-89
2023/09/24 08:33:56;;;;;;;1.87;1.77;;;24.30;96.50;;;;;;6260450;22;20631;-88
2023/09/24 08:36:27;;;;;;;0.80;0.80;;;24.10;96.90;;;;;;6262312;22;20388;-86
2023/09/24 08:38:56;;;;;;;1.30;1.30;;;23.50;98.10;;;;;;6289770;22;20396;-89
2023/09/24 08:41:32;;;;;;;0.90;0.90;;;23.30;97.60;;;;;;6266152;22;20430;-83
2023/09/24 08:44:04;;;;;;;0.80;0.80;;;22.80;98.10;;;;;;6283957;22;20411;-89
2023/09/24 08:46:32;;;;;;;0.90;0.90;;;22.70;98.20;;;;;;6282859;22;20381;-83
2023/09/24 08:49:01;;;;;;;1.00;1.00;;;22.50;97.80;;;;;;6285478;22;20412;-87
2023/09/24 08:51:30;;;;;;;3.50;1.50;;;22.20;98.20;;;;;;6284167;22;20712;-89
2023/09/24 08:54:10;;;;;;;1.03;1.00;;;23.00;99.40;;;;;;6286813;22;20624;-88
2023/09/24 08:56:39;;;;;;;0.90;0.90;;;22.80;97.80;;;;;;6237889;22;20471;-87
2023/09/24 08:59:07;;;;;;;0.90;0.90;;;22.60;98.70;;;;;;6285361;22;20509;-91
2023/09/24 09:01:35;;;;;;;1.77;1.67;;;22.50;98.90;;;;;;6261728;22;20389;-84
2023/09/24 09:04:02;;;;;;;0.80;0.80;;;22.50;98.80;;;;;;6288776;22;20739;-89
2023/09/24 09:06:38;;;;;;;1.57;1.47;;;22.00;98.90;;;;;;6219249;22;20430;-90
2023/09/24 09:09:07;;;;;;;0.70;0.70;;;22.90;98.80;;;;;;6253443;23;20564;-87
2023/09/24 09:11:41;;;;;;;0.80;0.80;;;22.80;97.60;;;;;;6256890;23;20407;-89
2023/09/24 09:14:10;;;;;;;1.17;1.07;;;22.10;98.30;;;;;;6256731;23;20416;-89
2023/09/24 09:16:58;;;;;;;0.90;0.90;;;22.40;99.60;;;;;;6225967;23;20372;-81
2023/09/24 09:19:30;;;;;;;1.70;1.60;;;22.10;99.90;;;;;;6230938;23;20353;-85
2023/09/24 09:22:17;;;;;;;1.17;1.17;;;21.90;99.90;;;;;;6241468;22;20411;-82
2023/09/24 09:24:48;;;;;;;0.87;0.87;;;21.40;99.90;;;;;;6262142;22;20398;-87
2023/09/24 09:27:17;;;;;;;1.63;1.53;;;21.10;99.90;;;;;;6230411;23;20401;-84
2023/09/24 09:29:44;;;;;;;1.80;1.70;;;20.80;99.90;;;;;;6254983;23;20418;-84
2023/09/24 09:32:11;;;;;;;1.03;1.00;;;20.60;99.90;;;;;;6240169;22;20418;-85
2023/09/24 09:34:51;;;;;;;0.60;0.60;;;20.30;99.90;;;;;;6259930;22;20438;-84
2023/09/24 09:37:19;;;;;;;3.30;3.00;;;19.50;99.90;;;;;;6261298;22;20420;-82
2023/09/24 09:42:33;;;;;;;1.10;1.10;;;19.20;99.90;;;;;;6231072;22;20534;-86
2023/09/24 09:45:08;;;;;;;1.23;1.10;;;19.50;99.90;;;;;;6252693;23;20376;-85
2023/09/24 09:47:56;;;;;;;0.70;0.70;;;19.60;99.90;;;;;;6261528;23;20371;-90
2023/09/24 09:58:51;;;;;;;;;;;;;;;;;;;;;
2023/09/24 10:01:20;;;;;;;1.03;1.03;;;19.90;99.90;;;;;;6262507;23;20378;-85
2023/09/24 10:03:53;;;;;;;1.60;1.50;;;19.90;99.90;;;;;;6227145;23;20742;-81
2023/09/24 10:06:21;;;;;;;0.70;0.70;;;19.90;99.90;;;;;;6254765;22;20476;-85
2023/09/24 10:08:59;;;;;;;0.80;0.80;;;19.70;99.90;;;;;;6210833;22;20491;-91
2023/09/24 10:11:32;;;;;;;0.87;0.87;;;20.00;99.90;;;;;;6232128;22;20490;-92
2023/09/24 10:14:05;;;;;;;1.20;1.10;;;20.20;99.90;;;;;;6255597;23;20446;-89
2023/09/24 10:16:35;;;;;;;0.80;0.80;;;20.50;99.90;;;;;;6226132;23;20375;-90
2023/09/24 10:19:11;;;;;;;0.80;0.80;;;20.30;99.90;;;;;;6253730;23;20364;-88
2023/09/24 10:21:42;;;;;;;1.20;1.10;;;19.80;99.90;;;;;;6224429;23;20371;-87
2023/09/24 10:24:12;;;;;;;2.00;1.60;;;19.60;99.90;;;;;;6227596;23;20455;-87
2023/09/24 10:27:03;;;;;;;0.70;0.70;;;19.30;99.90;;;;;;6234679;23;20476;-86
2023/09/24 10:29:46;;;;;;;0.80;0.80;;;19.40;99.90;;;;;;6244209;22;20544;-83
2023/09/24 10:32:14;;;;;;;2.10;1.77;;;19.30;99.90;;;;;;6257554;23;20388;-87
2023/09/24 10:34:54;;;;;;;1.10;1.10;;;18.90;99.90;;;;;;6233878;23;20712;-82
2023/09/24 10:37:34;;;;;;;1.50;1.40;;;19.10;99.90;;;;;;6234821;23;20409;-85
2023/09/24 10:40:09;;;;;;;0.70;0.70;;;19.10;99.90;;;;;;6263497;23;20379;-84
2023/09/24 10:42:38;;;;;;;0.80;0.80;;;18.50;99.90;;;;;;6239059;23;20348;-81
2023/09/24 10:45:06;;;;;;;1.13;1.13;;;18.30;99.90;;;;;;6230313;23;20401;-89
2023/09/24 10:47:38;;;;;;;0.70;0.70;;;18.30;99.90;;;;;;6232850;23;20400;-79
2023/09/24 10:50:12;;;;;;;1.07;1.07;;;18.40;99.90;;;;;;6227872;23;20459;-80
2023/09/24 10:52:59;;;;;;;0.90;0.90;;;18.80;99.90;;;;;;6256453;23;20425;-86
2023/09/24 10:55:27;;;;;;;0.70;0.70;;;19.20;99.90;;;;;;6254970;23;20405;-91
2023/09/24 10:57:55;;;;;;;0.70;0.70;;;19.50;99.90;;;;;;6254794;23;20381;-90
2023/09/24 11:00:34;;;;;;;0.70;0.70;;;19.70;99.90;;;;;;6255812;23;20419;-88
2023/09/24 11:03:20;;;;;;;1.90;1.17;;;19.80;99.90;;;;;;6255826;23;20351;-88
2023/09/24 11:05:53;;;;;;;1.20;1.20;;;20.40;99.90;;;;;;6264727;22;20389;-90
2023/09/24 11:08:31;;;;;;;0.73;0.73;;;20.20;99.90;;;;;;6246726;22;20439;-84
2023/09/24 11:10:58;;;;;;;1.90;1.80;;;20.20;99.90;;;;;;6287280;22;20421;-86
2023/09/24 11:13:25;;;;;;;0.87;0.87;;;20.10;99.90;;;;;;6259899;22;20485;-83
2023/09/24 11:15:52;;;;;;;1.10;1.10;;;19.60;99.90;;;;;;6286331;22;20426;-84
2023/09/24 11:18:20;;;;;;;0.90;0.90;;;19.50;99.90;;;;;;6258979;22;20374;-84
2023/09/24 11:20:54;;;;;;;0.60;0.60;;;19.30;99.90;;;;;;6261091;22;20380;-87
2023/09/24 11:23:24;;;;;;;0.80;0.80;;;19.10;99.90;;;;;;6287831;22;20390;-83
2023/09/24 11:25:51;;;;;;;0.90;0.90;;;19.30;99.90;;;;;;6288064;22;20387;-88
2023/09/24 11:28:30;;;;;;;0.90;0.90;;;19.70;99.90;;;;;;6291349;22;20354;-89
2023/09/24 11:31:01;;;;;;;0.67;0.67;;;19.80;99.90;;;;;;6254580;22;20428;-89
2023/09/24 11:33:28;;;;;;;1.70;1.17;;;20.40;99.90;;;;;;6263758;22;20421;-88
2023/09/24 11:35:56;;;;;;;0.60;0.60;;;20.70;99.90;;;;;;6285337;22;20395;-86
2023/09/24 11:38:40;;;;;;;0.70;0.70;;;20.50;99.90;;;;;;6286746;22;20844;-84
2023/09/24 11:41:17;;;;;;;0.80;0.80;;;20.60;99.90;;;;;;6286362;22;20359;-84
2023/09/24 11:43:57;;;;;;;0.70;0.70;;;20.10;99.90;;;;;;6260368;22;20369;-82
2023/09/24 11:46:32;;;;;;;1.23;1.23;;;19.70;99.90;;;;;;6284189;22;20404;-82
2023/09/24 11:49:01;;;;;;;0.70;0.70;;;19.20;99.90;;;;;;6284678;22;20385;-84
2023/09/24 11:51:30;;;;;;;0.70;0.70;;;18.70;99.90;;;;;;6258421;22;20412;-83
2023/09/24 11:53:57;;;;;;;0.60;0.60;;;18.40;99.90;;;;;;6285157;22;20435;-87
2023/09/24 11:56:24;;;;;;;0.80;0.80;;;18.20;99.90;;;;;;6284016;22;20401;-87
2023/09/24 11:58:55;;;;;;;0.67;0.67;;;18.40;99.90;;;;;;6284111;22;20388;-86
2023/09/24 12:01:22;;;;;;;0.60;0.60;;;18.70;99.90;;;;;;6286465;22;20482;-82
2023/09/24 12:03:55;;;;;;;0.80;0.80;;;19.00;99.90;;;;;;6267044;22;20413;-90
2023/09/24 12:06:22;;;;;;;0.87;0.87;;;19.20;99.90;;;;;;6241994;22;20523;-83
2023/09/24 12:08:49;;;;;;;0.90;0.90;;;19.50;99.90;;;;;;6267598;22;20363;-84
2023/09/24 12:11:16;;;;;;;0.60;0.60;;;19.50;99.90;;;;;;6262721;22;20450;-82
2023/09/24 12:13:46;;;;;;;0.63;0.63;;;19.00;99.90;;;;;;6259484;22;20419;-88
2023/09/24 12:16:16;;;;;;;0.70;0.70;;;18.90;99.90;;;;;;6257622;22;20377;-86
2023/09/24 12:18:47;;;;;;;0.80;0.80;;;19.00;99.90;;;;;;6286726;22;20638;-83
2023/09/24 12:21:17;;;;;;;0.97;0.97;;;19.20;99.90;;;;;;6285488;22;20448;-86
2023/09/24 12:23:46;;;;;;;0.93;0.90;;;19.50;99.90;;;;;;6234464;22;20375;-86
2023/09/24 12:26:17;;;;;;;0.60;0.60;;;19.70;99.90;;;;;;6286695;22;20396;-82
2023/09/24 12:28:53;;;;;;;0.70;0.70;;;20.00;99.90;;;;;;6243176;22;20349;-90
2023/09/24 12:31:20;;;;;;;0.60;0.60;;;20.10;99.90;;;;;;6268088;22;20367;-85
2023/09/24 12:33:48;;;;;;;0.70;0.70;;;20.10;99.90;;;;;;6284941;22;20413;-82
2023/09/24 12:36:18;;;;;;;0.60;0.60;;;20.00;99.90;;;;;;6283259;22;20442;-83
2023/09/24 12:38:46;;;;;;;0.80;0.80;;;20.00;99.90;;;;;;6255730;22;20784;-86
2023/09/24 12:41:18;;;;;;;0.80;0.80;;;19.50;99.90;;;;;;6282816;22;20402;-82
2023/09/24 12:43:48;;;;;;;0.70;0.70;;;18.90;99.90;;;;;;6282596;22;20407;-85
2023/09/24 12:46:19;;;;;;;0.80;0.80;;;18.70;99.90;;;;;;6282867;22;20370;-85
2023/09/24 12:48:49;;;;;;;1.13;1.13;;;18.60;99.90;;;;;;6284030;22;20395;-85
2023/09/24 12:51:19;;;;;;;1.33;1.33;;;18.80;99.90;;;;;;6284303;22;20431;-87
2023/09/24 12:53:48;;;;;;;0.70;0.70;;;18.80;99.90;;;;;;6283753;22;20417;-85
2023/09/24 12:56:15;;;;;;;0.70;0.70;;;19.10;99.90;;;;;;6282365;22;20734;-85
2023/09/24 12:58:45;;;;;;;1.23;1.23;;;19.20;99.90;;;;;;6282298;22;20784;-84
2023/09/24 13:01:12;;;;;;;0.70;0.70;;;19.20;99.90;;;;;;6282248;22;20400;-83
2023/09/24 13:03:46;;;;;;;0.60;0.60;;;18.90;99.90;;;;;;6283938;22;20366;-88
2023/09/24 13:06:22;;;;;;;0.90;0.90;;;19.30;99.90;;;;;;6257136;22;20458;-82
2023/09/24 13:08:50;;;;;;;0.60;0.60;;;19.30;99.90;;;;;;6281935;22;20583;-83
2023/09/24 13:11:18;;;;;;;0.70;0.70;;;19.30;99.90;;;;;;6255950;22;20434;-86
2023/09/24 13:13:45;;;;;;;0.70;0.70;;;19.00;99.90;;;;;;6283812;22;20477;-87
2023/09/24 13:16:12;;;;;;;0.67;0.67;;;18.90;99.90;;;;;;6259507;22;20475;-86